Mansfield Center, CT (06250)

9:01 PM EDT on August 30, 2016 (GMT -0400)
Gurleyville Green | | Change Station

Elev 354 ft 41.82 °N, 72.22 °W | Updated 27 minutes ago

Clear
Clear
66.7 °F
Feels Like 66.7 °F
N
0.0
Wind Variable Wind from WSW
Gusts 0.0 mph

Today
High -- | Low -- °F
--% Chance of Precip.
Yesterday
High -- | Low -- °F
Precip. -- in
Pressure 30.06 in
Visibility 10.0 miles
Clouds Clear
Dew Point 63 °F
Humidity 88%
Rainfall 0.00 in
Snow Depth Not available.
6:13 AM 7:24 PM
Waning Crescent, 2% visible
METAR KIJD 310052Z AUTO 00000KT 10SM CLR 21/17 A3007 RMK AO2 SLP180 T02110172
Pressure 30.06 in
Visibility 10.0 miles
Clouds Clear
Dew Point 63 °F
Humidity 88%
Rainfall 0.00 in
Snow Depth Not available.
6:13 AM 7:24 PM
Waning Crescent, 2% visible
METAR KIJD 310052Z AUTO 00000KT 10SM CLR 21/17 A3007 RMK AO2 SLP180 T02110172

10-Day Weather Forecast

Almanac

Astronomy

Aug. 30, 2016 Rise Set
Actual Time
Civil Twilight
Nautical Twilight
Astronomical Twilight
Moon
Length of Visible Light
Length of Day
Tomorrow will be .
, % of the Moon is Illuminated

Today's Extremes

State Highs State Lows

Community

WunderPhotos

Upload Photos

1,935,971 photos uploaded!

WunderBlog® & News

Nearby

Air Quality

  Air Quality AQ Index Pollutant
Not available.

Snow Depth

Station Depth Elevation

Earthquake Activity

City Distance Mag. Time & Date
Minimum magnitude displayed is 2.5.

Coastal Water Temperatures

Place Temperature

Stations

Nearby Weather Stations

Station Location Temp. Windchill Dew Point Humidity Wind Precip. Elev Updated Type
                   

Watches & Warnings

There are currently no watches in effect.